Airfield :
LOGIN :

Register | Disclaimer

   EN    FR    IT 

 










Legend :    VFR   Marginal VFR   IFR   Intensive IFR   Very Intensive IFR
Visi :
Ceiling :
>= 8 km
>= 3000ft
5 to 8 km
1000 to 3000 ft
1500m to 5 km
500 to 1000 ft
800 to 1500m
200 to 500 ft
< 800m
< 200 ft
Symbols :   Thunderstorms  Fog  Heavy snow  Heavy precipitations  Wind > 20 kt
SIGMETs :     Misc.  Thunderstorms  Icing  Turbulence  Mountain Waves  Volcanic Ashes






- Airport Elevation : 412 ft
- IATA code : ORE


LFOJ - Orleans

CURRENT METAR :
  • 011400Z AUTO 02010KT 9999 OVC012 06/04 Q1024 NOSIG

EXPIRED METARs :
  • 011330Z AUTO 02010KT 9000 BKN013 OVC050 06/04 Q1024 NOSIG
  • 011300Z AUTO 02011KT 9000 BKN012 OVC048 06/04 Q1024 NOSIG
  • 011230Z AUTO 01011KT 7000 OVC010 06/04 Q1024 NOSIG
  • 011200Z AUTO 02011KT 7000 BKN010 OVC047 06/04 Q1024 NOSIG
  • 011130Z AUTO 02012KT 6000 BKN010 BKN014 OVC046 06/04 Q1024 BECMG BKN025

TAF AMD TAF LFOJ
Valid from the 01 at 11:00 until the 02 at 09:00 UTC


011124Z 0111/0209 02008KT 5000 BR BKN009 BKN025 TX07/0113Z TN02/0207Z
BECMG 0113/0115 7000 NSW BKN012 BKN025
TEMPO 0115/0119 SCT014
BECMG 0121/0123 BKN020
BECMG 0205/0207 OVC008
PROB30
TEMPO 0207/0209 4000 BR



MET'MAP, your aeronautical weather chart ! - Copyright ORBIFLY December 2007 - Disclaimer

ORBIFLY MET'MAP TEAM :

Programming & Development : Alexandra Zaïnal
Original concept : Baudouin d'Aumeries
Technical & hardware support : Manuel Goepfert
Assistance : Marc-Olivier Méhu




SOURCES & CREDITS :

   NOAA